createdAt,value
2019-05-06T12:36:19.289Z,12.50
2019-05-06T12:39:06.837Z,12.70
2019-05-06T12:41:37.129Z,12.50
2019-05-06T12:44:05.594Z,12.00
2019-05-06T12:46:35.700Z,11.80
2019-05-06T12:49:04.423Z,11.80
2019-05-06T12:51:32.917Z,11.60
2019-05-06T12:54:03.558Z,11.50
2019-05-06T12:56:31.777Z,11.50
2019-05-06T12:59:02.124Z,11.50
2019-05-06T13:01:33.506Z,11.50
2019-05-06T13:04:04.097Z,11.50
2019-05-06T13:06:33.216Z,11.60
2019-05-06T13:09:04.701Z,11.50
2019-05-06T13:11:31.150Z,11.40
2019-05-06T13:14:04.082Z,11.30
2019-05-06T13:16:53.015Z,11.30
2019-05-06T13:19:22.902Z,11.40
2019-05-06T13:21:50.975Z,11.40
2019-05-06T13:24:19.521Z,11.50
2019-05-06T13:26:47.996Z,11.60
2019-05-06T13:29:22.671Z,11.50
2019-05-06T13:31:52.965Z,11.60
2019-05-06T13:34:23.452Z,11.60
2019-05-06T13:36:53.332Z,11.70
2019-05-06T13:39:23.766Z,11.70
2019-05-06T13:41:52.822Z,11.70
2019-05-06T13:44:22.796Z,12.00
2019-05-06T13:46:53.260Z,12.00
2019-05-06T13:49:32.753Z,12.00
2019-05-06T13:52:04.540Z,12.00
2019-05-06T13:54:33.344Z,11.70
2019-05-06T13:57:02.975Z,11.80
2019-05-06T13:59:34.765Z,11.80
2019-05-06T14:02:15.953Z,11.50
2019-05-06T14:04:44.216Z,11.30
2019-05-06T14:07:13.266Z,11.30
2019-05-06T14:09:43.747Z,11.40
2019-05-06T14:12:12.005Z,11.40
2019-05-06T14:14:42.510Z,11.60
2019-05-06T14:17:12.300Z,11.70
2019-05-06T14:19:42.934Z,11.70
2019-05-06T14:22:12.553Z,11.70
2019-05-06T14:27:32.347Z,11.80
2019-05-06T14:30:05.247Z,11.90
2019-05-06T14:32:33.692Z,12.10
2019-05-06T14:35:02.133Z,12.20
2019-05-06T14:37:32.802Z,12.40
2019-05-06T14:40:02.012Z,12.80
2019-05-06T14:42:32.436Z,12.70
2019-05-06T14:45:00.822Z,12.60
2019-05-06T14:47:32.759Z,12.40
2019-05-06T14:50:03.680Z,12.20
2019-05-06T14:52:33.393Z,12.20
2019-05-06T14:55:03.322Z,12.10
2019-05-06T14:57:32.383Z,12.10
2019-05-06T15:00:00.883Z,12.00
2019-05-06T15:02:29.382Z,11.90
2019-05-06T15:04:57.844Z,11.80
2019-05-06T15:07:26.288Z,11.90
2019-05-06T15:10:07.953Z,11.70
2019-05-06T15:12:24.934Z,11.80
2019-05-06T15:14:53.379Z,11.90
2019-05-06T15:17:23.876Z,11.80
2019-05-06T15:19:52.857Z,11.90
2019-05-06T15:22:22.522Z,11.80
2019-05-06T15:24:53.623Z,11.90
2019-05-06T15:27:22.790Z,12.00
2019-05-06T15:29:54.315Z,12.00
2019-05-06T15:32:24.412Z,12.10
2019-05-06T15:35:02.415Z,11.90
2019-05-06T15:37:33.861Z,11.80
2019-05-06T15:40:03.038Z,11.80
2019-05-06T15:42:34.070Z,11.80
2019-05-06T15:45:01.874Z,11.70
2019-05-06T15:47:32.274Z,11.70
2019-05-06T15:50:00.491Z,11.60
2019-05-06T15:52:28.962Z,11.50
2019-05-06T15:54:57.399Z,11.60
2019-05-06T15:57:25.875Z,11.50
2019-05-06T15:59:54.344Z,11.40
2019-05-06T16:02:23.471Z,11.40
2019-05-06T16:04:52.015Z,11.30
2019-05-06T16:07:24.458Z,11.30
2019-05-06T16:09:55.054Z,11.30
2019-05-06T16:12:22.075Z,11.30
2019-05-06T16:14:52.831Z,11.30
2019-05-06T16:17:23.564Z,11.30
2019-05-06T16:19:50.985Z,11.30
2019-05-06T16:22:19.395Z,11.30
2019-05-06T16:25:07.358Z,11.30
2019-05-06T16:27:35.794Z,11.40
2019-05-06T16:30:06.922Z,11.50
2019-05-06T16:32:35.354Z,11.40
2019-05-06T16:35:05.990Z,11.40
2019-05-06T16:37:34.471Z,11.30
2019-05-06T16:40:02.984Z,11.20
2019-05-06T16:42:31.565Z,11.10
2019-05-06T16:45:00.011Z,11.00
2019-05-06T16:47:44.375Z,10.90
2019-05-06T16:50:13.451Z,10.90
2019-05-06T16:52:44.794Z,10.80
2019-05-06T16:55:17.894Z,10.80
2019-05-06T16:57:47.943Z,10.80
2019-05-06T17:00:18.363Z,11.10
2019-05-06T17:02:57.697Z,11.00
2019-05-06T17:05:35.187Z,11.00
2019-05-06T17:08:03.653Z,10.90
2019-05-06T17:10:32.333Z,10.90
2019-05-06T17:13:03.002Z,11.00
2019-05-06T17:15:32.195Z,10.90
2019-05-06T17:18:03.002Z,11.00
2019-05-06T17:20:32.590Z,11.10
2019-05-06T17:23:02.924Z,11.10
2019-05-06T17:25:33.529Z,11.10
2019-05-06T17:28:03.478Z,11.10
2019-05-06T17:30:39.260Z,11.00
2019-05-06T17:33:25.440Z,10.90
2019-05-06T17:35:53.856Z,10.90
2019-05-06T17:38:23.948Z,10.80
2019-05-06T17:40:52.525Z,10.70
2019-05-06T17:43:22.570Z,10.70
2019-05-06T17:46:01.674Z,10.70
2019-05-06T17:48:36.770Z,10.70
2019-05-06T17:51:09.572Z,10.70
2019-05-06T17:53:42.448Z,10.70
2019-05-06T17:56:12.373Z,10.60
2019-05-06T17:58:42.266Z,10.70
2019-05-06T18:01:12.571Z,10.60
2019-05-06T18:03:41.097Z,10.60
2019-05-06T18:06:13.899Z,10.60
2019-05-06T18:08:39.771Z,10.50
2019-05-06T18:11:08.261Z,10.50
2019-05-06T18:13:36.847Z,10.50
2019-05-06T18:16:05.283Z,10.40
2019-05-06T18:18:33.795Z,10.30
2019-05-06T18:21:02.633Z,10.20
2019-05-06T18:23:33.432Z,10.20
2019-05-06T18:26:03.158Z,10.20
2019-05-06T18:28:32.355Z,10.20
2019-05-06T18:31:03.112Z,10.20
2019-05-06T18:33:32.697Z,10.10
2019-05-06T18:36:02.578Z,10.10
2019-05-06T18:38:33.463Z,10.10
2019-05-06T18:41:02.082Z,10.20
2019-05-06T18:43:32.671Z,10.20
2019-05-06T18:46:02.746Z,10.10
2019-05-06T18:48:32.885Z,10.10
2019-05-06T18:51:12.634Z,10.00
2019-05-06T18:53:42.598Z,10.00
2019-05-06T18:56:12.707Z,10.00
2019-05-06T18:58:44.307Z,10.00
2019-05-06T19:01:13.625Z,9.90
2019-05-06T19:03:45.274Z,9.90
2019-05-06T19:06:13.718Z,9.90
2019-05-06T19:08:43.776Z,9.90
2019-05-06T19:11:18.347Z,9.90
2019-05-06T19:13:47.531Z,9.90
2019-05-06T19:16:16.677Z,9.90
2019-05-06T19:18:45.164Z,9.90
2019-05-06T19:21:13.606Z,9.90
2019-05-06T19:23:42.803Z,9.90
2019-05-06T19:26:12.358Z,9.90
2019-05-06T19:28:42.876Z,9.90
2019-05-06T19:31:12.318Z,9.90
2019-05-06T19:33:42.937Z,9.90
2019-05-06T19:36:12.612Z,9.80
2019-05-06T19:38:42.372Z,9.70
2019-05-06T19:41:12.853Z,9.60
2019-05-06T19:43:41.091Z,9.60
2019-05-06T19:46:11.854Z,9.50
2019-05-06T19:48:39.748Z,9.50
2019-05-06T19:51:08.211Z,9.50
2019-05-06T19:53:36.635Z,9.50
2019-05-06T19:56:05.075Z,9.50
2019-05-06T19:58:34.017Z,9.40
2019-05-06T20:01:03.951Z,9.40
2019-05-06T20:03:32.853Z,9.40
2019-05-06T20:06:19.458Z,9.30
2019-05-06T20:08:49.566Z,9.40
2019-05-06T20:11:25.427Z,9.40
2019-05-06T20:13:54.002Z,9.30
2019-05-06T20:16:22.987Z,9.40
2019-05-06T20:18:52.600Z,9.30
2019-05-06T20:21:23.060Z,9.20
2019-05-06T20:23:52.612Z,9.10
2019-05-06T20:26:21.948Z,9.10
2019-05-06T20:28:52.432Z,9.00
2019-05-06T20:31:22.486Z,9.00
2019-05-06T20:33:52.785Z,8.90
2019-05-06T20:36:22.568Z,8.90
2019-05-06T20:38:51.301Z,8.80
2019-05-06T20:41:21.939Z,8.90
2019-05-06T20:43:49.843Z,8.90
2019-05-06T20:46:18.299Z,8.80
2019-05-06T20:48:46.730Z,8.80
2019-05-06T20:51:15.163Z,8.80
2019-05-06T20:53:43.607Z,8.90
2019-05-06T20:56:12.490Z,8.90
2019-05-06T20:58:41.999Z,8.90
2019-05-06T21:01:10.655Z,8.90
2019-05-06T21:03:39.064Z,8.80
2019-05-06T21:06:07.528Z,8.70
2019-05-06T21:08:35.935Z,8.60
2019-05-06T21:11:04.406Z,8.60
2019-05-06T21:13:35.441Z,8.50
2019-05-06T21:16:03.140Z,8.50
2019-05-06T21:18:32.450Z,8.50
2019-05-06T21:21:02.144Z,8.60
2019-05-06T21:23:32.140Z,8.50
2019-05-06T21:26:03.084Z,8.50
2019-05-06T21:28:31.145Z,8.60
2019-05-06T21:30:59.625Z,8.60
2019-05-06T21:33:47.394Z,8.60
2019-05-06T21:36:15.840Z,8.60
2019-05-06T21:38:44.290Z,8.60
2019-05-06T21:41:12.782Z,8.60
2019-05-06T21:43:47.100Z,8.50
2019-05-06T21:46:12.942Z,8.50
2019-05-06T21:48:42.044Z,8.50
2019-05-06T21:51:12.298Z,8.50
2019-05-06T21:53:40.821Z,8.50
2019-05-06T21:56:09.337Z,8.50
2019-05-06T21:58:37.751Z,8.50
2019-05-06T22:01:07.998Z,8.40
2019-05-06T22:03:36.470Z,8.40
2019-05-06T22:06:05.091Z,8.40
2019-05-06T22:08:33.554Z,8.40
2019-05-06T22:11:02.979Z,8.40
2019-05-06T22:13:33.236Z,8.40
2019-05-06T22:16:04.835Z,8.40
2019-05-06T22:18:33.078Z,8.30
2019-05-06T22:21:05.798Z,8.30
2019-05-06T22:23:51.834Z,8.30
2019-05-06T22:26:37.555Z,8.30
2019-05-06T22:29:14.789Z,8.20
2019-05-06T22:31:47.715Z,8.20
2019-05-06T22:34:16.216Z,8.10
2019-05-06T22:36:44.671Z,8.10
2019-05-06T22:39:13.080Z,8.10
2019-05-06T22:41:43.908Z,8.10
2019-05-06T22:44:14.043Z,8.10
2019-05-06T22:46:42.430Z,8.10
2019-05-06T22:49:13.133Z,8.10
2019-05-06T22:51:42.559Z,8.10
2019-05-06T22:54:11.227Z,8.00
2019-05-06T22:56:39.686Z,8.00
2019-05-06T22:59:08.092Z,7.90
2019-05-06T23:01:43.078Z,7.90
2019-05-06T23:04:11.951Z,7.90
2019-05-06T23:06:40.407Z,7.90
2019-05-06T23:09:09.227Z,7.80
2019-05-06T23:11:38.319Z,7.80
2019-05-06T23:14:06.884Z,7.70
2019-05-06T23:16:35.375Z,7.70
2019-05-06T23:19:03.804Z,7.70
2019-05-06T23:21:33.737Z,7.60
2019-05-06T23:24:02.267Z,7.60
2019-05-06T23:26:30.790Z,7.60
2019-05-06T23:28:59.269Z,7.60
2019-05-06T23:31:27.734Z,7.60
2019-05-06T23:33:56.178Z,7.50
2019-05-06T23:36:28.569Z,7.50
2019-05-06T23:39:33.223Z,7.50
2019-05-06T23:42:37.831Z,7.50
2019-05-06T23:45:42.513Z,7.40
2019-05-06T23:48:46.998Z,7.40
2019-05-06T23:51:53.172Z,7.40
2019-05-06T23:54:57.560Z,7.30
2019-05-06T23:57:25.025Z,7.30
2019-05-06T23:59:54.574Z,7.30
